Terminal Aerodrome Forecast
Issued by NWS

Home | Current Version | Previous Version | Text Only | Print | Product List | Glossary On
Versions: 1 2 3 4 5 6 7 8 9 10 11 12 13 14 15 16 17 18 19 20 21 22 23 24
000
FTUS42 KMFL 230912 AAA
TAFTMB
TAF AMD
KTMB 230912Z 2309/2406 15004KT P6SM SKC
     FM231400 16010KT P6SM SCT030 SCT250
     FM231600 17015G25KT P6SM SCT030 SCT060
     FM240000 19005KT P6SM SCT030 SCT060=

USA.gov is the U.S. government's official web portal to all federal, state and local government web resources and services.